Ridgetown, Canada
Current Conditions -  °F | °C
As of 8:00 AM on Wednesday 22 Oct 2014 (Local Time) from CYCK Reporting Station
Clear Clear  
Wind Chill:   Ceiling: Unl
Heat Index:   Visibility: 9mi
Dew Point:   Wind: 8mph
Humidity: 93%   Direction: 360°N
Pressure: 30.27"   Gusts: NA
Location:  42.43°N, 81.88°W
Report Text: CYCK 221200Z AUTO 36007KT 9SM CLR 04/03 A3027 RMK SLP255
Loading
Personal Weather Stations






























Interactive Weather Map
Tropical Storm Tracking
New forecast layout! Learn more

10-Day Weather Forecast

Advertisements
Track Severe Weather on mobile